Aérodrome :
LOGIN :

S'inscrire | Disclaimer

   EN    FR    IT 

 










Légende :    VFR   VFR Marginal   IFR   IFR Intensif   IFR Très Intensif
Visi : 
Plafond : 
>= 8 km
>= 3000ft
5 à 8 km
1000 à 3000 ft
1500m à 5 km
500 à 1000 ft
800 à 1500m
200 à 500 ft
< 800m
< 200 ft
Symboles :   Orages  Brouillard  Fortes neiges  Fortes précipitations  Vent > 20 kt
SIGMETs :   Divers  Orages  Givrage  Turbulence  Onde Orograph.  Cendres Volcan.







- Altitude de l'aérodrome : 302 ft
- Voir les cartes d'approche


LFPM - Melun Villaroche

DERNIER METAR :
  • 220930Z AUTO 17008KT 1100 1000 SN BR OVC008/// ///TCU M01/M01 Q1008

METARs EXPIRÉS :
  • 220900Z AUTO 17009KT 2300 -SN BR OVC008/// ///TCU M01/M01 Q1008
  • 220830Z AUTO 15009KT 3500 BR OVC009 M01/M02 Q1009
  • 220800Z AUTO 16010KT 4100 BR FEW012 SCT072 BKN110 M02/M02 Q1009
  • 220730Z AUTO 16010KT 4200 BR FEW018 SCT078 OVC100 M02/M02 Q1010
  • 220700Z AUTO 16009KT 5000 BR SCT019 SCT086 BKN100 M02/M03 Q1010

Prévision TAF périmée.
ATIS : +33 1 64 14 28 44
Pas de NOTAMs connus pour ce terrain.



MET'MAP, la Météo Aéronautique d'un coup d'oeil ! - Copyright ORBIFLY Décembre 2007 - Disclaimer

ORBIFLY MET'MAP TEAM :

Programmation & Développement : Alexandra Zaïnal
Conception & Développement : Baudouin d'Aumeries
Co-Programmation & Développement : Marc-Olivier Méhu
Soutien technique & logistique : Manuel Goepfert

Contact : metmap@orbifly.com




SOURCES & CREDITS :

   NOAA